Time;durP1;ratioP1;P1;durP2;ratioP2;P2;SDS_P1;SDS_P2;PMS_P1;PMS_P2;Temp;Humidity;BMP_temperature;BMP_pressure;BME280_temperature;BME280_humidity;BME280_pressure;Samples;Min_cycle;Max_cycle;Signal;HPM_P1;HPM_P2
2022/04/11 00:00:47;;;;;;;103.80;9.52;;;;;;;0.68;100.00;98420.66;4998904;28;20037;-56
2022/04/11 00:03:13;;;;;;;89.57;8.95;;;;;;;0.77;100.00;98418.13;4996219;28;20034;-55
2022/04/11 00:05:38;;;;;;;101.45;9.13;;;;;;;1.04;100.00;98419.13;4998146;28;20033;-57
2022/04/11 00:08:04;;;;;;;110.03;8.68;;;;;;;1.38;100.00;98420.09;4995070;28;20611;-55
2022/04/11 00:10:29;;;;;;;82.55;7.47;;;;;;;1.54;100.00;98415.81;4997429;28;20042;-54
2022/04/11 00:13:04;;;;;;;76.93;5.65;;;;;;;1.60;100.00;98413.28;4999499;28;20050;-55
2022/04/11 00:15:30;;;;;;;87.50;6.60;;;;;;;1.62;100.00;98414.13;4999815;28;20726;-54
2022/04/11 00:17:55;;;;;;;92.82;6.72;;;;;;;1.73;100.00;98415.00;4998343;28;20634;-56
2022/04/11 00:20:20;;;;;;;94.75;7.90;;;;;;;1.71;100.00;98415.88;4997532;28;20116;-56
2022/04/11 00:22:46;;;;;;;97.30;8.75;;;;;;;1.12;100.00;98417.44;4999648;28;20018;-56
2022/04/11 00:25:11;;;;;;;98.90;9.10;;;;;;;0.77;100.00;98420.69;4998114;28;20022;-55
2022/04/11 00:27:36;;;;;;;91.25;8.93;;;;;;;0.61;100.00;98418.91;4998297;28;20030;-56
2022/04/11 00:30:03;;;;;;;87.82;8.93;;;;;;;0.62;100.00;98421.50;4997141;28;20040;-55
2022/04/11 00:32:28;;;;;;;110.88;10.15;;;;;;;0.70;100.00;98414.69;4996605;28;20475;-55
2022/04/11 00:34:54;;;;;;;122.95;10.20;;;;;;;0.67;100.00;98418.97;4999315;28;20912;-54
2022/04/11 00:37:19;;;;;;;112.57;9.63;;;;;;;0.98;100.00;98426.81;4997034;28;20045;-55
2022/04/11 00:39:44;;;;;;;107.07;9.73;;;;;;;0.84;100.00;98425.03;4999326;28;20033;-57
2022/04/11 00:42:12;;;;;;;90.90;8.85;;;;;;;0.81;100.00;98419.91;4998320;28;20100;-55
2022/04/11 00:44:38;;;;;;;88.72;8.63;;;;;;;0.77;100.00;98413.00;4994928;28;20057;-56
2022/04/11 00:47:03;;;;;;;100.38;8.35;;;;;;;0.77;100.00;98416.44;4997618;28;20082;-56
2022/04/11 00:49:29;;;;;;;96.85;9.18;;;;;;;0.93;100.00;98416.50;4996599;28;20054;-57
2022/04/11 00:51:54;;;;;;;85.15;8.02;;;;;;;1.10;100.00;98409.75;4996665;28;20073;-56
2022/04/11 00:54:20;;;;;;;90.53;8.57;;;;;;;0.98;100.00;98412.25;4997863;28;20026;-56
2022/04/11 00:56:46;;;;;;;111.32;9.55;;;;;;;0.88;100.00;98408.81;4996815;28;20619;-56
2022/04/11 00:59:13;;;;;;;99.45;9.23;;;;;;;0.80;100.00;98413.03;4997616;28;20570;-55
2022/04/11 01:01:39;;;;;;;105.03;9.07;;;;;;;0.94;100.00;98406.25;4997206;28;20112;-57
2022/04/11 01:04:04;;;;;;;96.93;7.95;;;;;;;0.96;100.00;98401.97;4998511;28;20029;-55
2022/04/11 01:06:30;;;;;;;88.05;8.55;;;;;;;1.04;100.00;98403.72;4997037;28;20108;-56
2022/04/11 01:08:56;;;;;;;91.28;8.60;;;;;;;0.60;100.00;98400.09;4997150;28;20205;-56
2022/04/11 01:11:22;;;;;;;103.80;9.07;;;;;;;0.82;100.00;98400.19;4997138;28;20084;-57
2022/04/11 01:13:47;;;;;;;112.65;9.93;;;;;;;0.73;100.00;98401.00;4997978;28;20026;-56
2022/04/11 01:16:13;;;;;;;91.35;8.85;;;;;;;0.85;100.00;98398.50;5000652;28;20129;-55
2022/04/11 01:18:39;;;;;;;108.90;9.73;;;;;;;0.73;100.00;98396.72;5004660;28;20022;-56
2022/04/11 01:21:08;;;;;;;92.05;8.43;;;;;;;0.93;100.00;98395.97;5004688;28;20034;-54
2022/04/11 01:23:34;;;;;;;91.53;9.02;;;;;;;0.87;100.00;98396.78;5002079;28;20041;-56
2022/04/11 01:25:59;;;;;;;95.78;8.77;;;;;;;0.87;100.00;98396.78;5001248;28;20034;-54
2022/04/11 01:28:25;;;;;;;97.13;9.50;;;;;;;0.80;100.00;98389.91;5003464;28;20056;-54
2022/04/11 01:30:54;;;;;;;98.20;9.13;;;;;;;0.79;100.00;98393.34;5001326;28;20037;-57
2022/04/11 01:33:26;;;;;;;93.40;8.63;;;;;;;0.86;100.00;98395.06;5000882;28;20088;-55
2022/04/11 01:35:51;;;;;;;104.90;9.65;;;;;;;0.85;100.00;98398.50;5000007;28;20498;-57
2022/04/11 01:38:17;;;;;;;73.53;8.07;;;;;;;0.78;100.00;98399.31;5002034;28;20030;-57
2022/04/11 01:40:56;;;;;;;108.28;9.07;;;;;;;0.77;100.00;98400.16;5002546;28;20411;-55
2022/04/11 01:43:23;;;;;;;86.22;8.68;;;;;;;0.67;100.00;98395.84;5000976;28;20032;-59
2022/04/11 01:45:49;;;;;;;95.65;8.80;;;;;;;0.56;100.00;98395.78;4998420;28;20193;-57
2022/04/11 01:48:14;;;;;;;95.32;9.20;;;;;;;0.56;100.00;98390.66;5001293;28;20487;-57
2022/04/11 01:50:40;;;;;;;98.57;9.75;;;;;;;0.44;100.00;98391.47;5000668;28;20044;-56
2022/04/11 01:53:11;;;;;;;95.70;8.95;;;;;;;0.29;100.00;98402.47;5002003;28;20052;-57
2022/04/11 01:55:37;;;;;;;105.35;10.38;;;;;;;0.30;100.00;98388.81;4998055;28;20042;-57
2022/04/11 01:58:03;;;;;;;109.93;10.15;;;;;;;0.43;100.00;98388.88;5000606;28;20644;-57
2022/04/11 02:00:29;;;;;;;81.82;9.00;;;;;;;0.33;100.00;98387.94;5000579;28;20278;-55
2022/04/11 02:02:54;;;;;;;91.05;8.73;;;;;;;0.55;100.00;98394.06;5001009;28;20644;-57
2022/04/11 02:05:20;;;;;;;110.20;9.77;;;;;;;0.49;100.00;98384.63;5001687;28;20117;-58
2022/04/11 02:07:45;;;;;;;95.70;9.50;;;;;;;0.45;100.00;98393.16;5002514;28;20037;-57
2022/04/11 02:10:10;;;;;;;108.07;9.57;;;;;;;0.45;100.00;98388.03;4999415;28;20019;-56
2022/04/11 02:12:36;;;;;;;80.25;8.60;;;;;;;0.35;100.00;98387.13;5000943;28;20022;-56
2022/04/11 02:15:02;;;;;;;93.38;8.98;;;;;;;0.45;100.00;98388.03;5003253;28;20095;-56
2022/04/11 02:17:27;;;;;;;108.13;9.57;;;;;;;0.36;100.00;98385.41;4997646;28;20699;-55
2022/04/11 02:19:52;;;;;;;89.18;8.60;;;;;;;0.55;100.00;98392.38;5003723;28;20022;-55
2022/04/11 02:22:18;;;;;;;90.28;9.05;;;;;;;0.67;100.00;98393.28;4999314;28;20053;-55
2022/04/11 02:24:43;;;;;;;107.70;9.50;;;;;;;0.66;100.00;98382.16;4999540;28;20050;-56
2022/04/11 02:27:08;;;;;;;94.30;9.18;;;;;;;0.48;100.00;98385.50;4999946;28;20030;-56
2022/04/11 02:29:34;;;;;;;100.00;8.63;;;;;;;0.52;100.00;98379.50;5000399;28;20086;-56
2022/04/11 02:31:59;;;;;;;98.05;9.57;;;;;;;0.60;100.00;98391.53;5000135;28;20042;-56
2022/04/11 02:34:25;;;;;;;98.13;9.55;;;;;;;0.40;100.00;98386.28;4998997;28;20037;-56
2022/04/11 02:36:51;;;;;;;106.28;9.60;;;;;;;0.53;100.00;98385.50;4996032;28;20576;-55
2022/04/11 02:39:16;;;;;;;90.47;9.18;;;;;;;0.42;100.00;98388.00;4995737;28;20030;-55
2022/04/11 02:41:42;;;;;;;99.65;10.02;;;;;;;0.29;100.00;98386.22;4998197;28;20045;-56
2022/04/11 02:44:07;;;;;;;95.05;9.10;;;;;;;0.47;100.00;98378.63;4997597;28;20034;-55
2022/04/11 02:46:33;;;;;;;108.75;9.27;;;;;;;0.50;100.00;98386.34;5000712;28;20045;-56
2022/04/11 02:48:58;;;;;;;98.47;9.35;;;;;;;0.34;100.00;98389.69;5001297;28;20025;-55
2022/04/11 02:51:23;;;;;;;94.32;8.63;;;;;;;0.43;100.00;98384.59;4998454;28;20030;-55
2022/04/11 02:53:49;;;;;;;98.95;9.05;;;;;;;0.71;100.00;98388.16;4998208;28;20079;-54
2022/04/11 02:56:14;;;;;;;84.72;8.68;;;;;;;0.70;100.00;98383.00;5002255;28;20675;-56
2022/04/11 02:58:40;;;;;;;93.70;8.27;;;;;;;0.88;100.00;98382.25;5002932;28;20626;-55
2022/04/11 03:01:05;;;;;;;88.78;7.22;;;;;;;0.93;100.00;98386.53;5000870;28;20042;-57
2022/04/11 03:03:30;;;;;;;79.47;7.30;;;;;;;0.98;100.00;98383.16;4999983;28;20036;-55
2022/04/11 03:05:55;;;;;;;108.50;9.50;;;;;;;0.51;100.00;98377.78;4998374;28;20042;-56
2022/04/11 03:08:21;;;;;;;95.65;9.00;;;;;;;0.64;100.00;98377.84;4999255;28;20036;-56
2022/04/11 03:10:46;;;;;;;84.50;7.95;;;;;;;0.60;100.00;98383.84;4999290;28;20041;-55
2022/04/11 03:13:11;;;;;;;89.45;7.72;;;;;;;0.81;100.00;98381.38;4998481;28;20128;-56
2022/04/11 03:15:37;;;;;;;101.53;8.73;;;;;;;1.00;100.00;98376.31;4998108;28;20029;-55
2022/04/11 03:18:03;;;;;;;110.57;9.45;;;;;;;0.89;100.00;98374.53;4997167;28;20037;-54
2022/04/11 03:20:28;;;;;;;91.00;8.90;;;;;;;0.45;100.00;98382.03;4998522;28;20042;-54
2022/04/11 03:22:53;;;;;;;107.82;9.82;;;;;;;0.82;100.00;98372.78;4998345;28;20029;-55
2022/04/11 03:25:19;;;;;;;97.22;9.07;;;;;;;0.70;100.00;98372.75;4999125;28;20036;-55
2022/04/11 03:27:45;;;;;;;87.88;8.85;;;;;;;0.37;100.00;98377.72;4997994;28;20029;-56
2022/04/11 03:30:11;;;;;;;91.55;8.57;;;;;;;0.55;100.00;98374.41;4997556;28;20021;-56
2022/04/11 03:32:36;;;;;;;97.82;9.25;;;;;;;0.63;100.00;98373.59;4997962;28;20034;-55
2022/04/11 03:35:02;;;;;;;93.20;9.32;;;;;;;0.49;100.00;98373.50;4996150;28;20037;-56
2022/04/11 03:37:27;;;;;;;96.32;9.00;;;;;;;0.53;100.00;98370.09;4999544;28;21014;-55
2022/04/11 03:39:53;;;;;;;91.55;8.85;;;;;;;0.55;100.00;98363.25;5000990;28;20060;-55
2022/04/11 03:42:18;;;;;;;94.35;8.82;;;;;;;0.43;100.00;98358.09;5001490;28;20036;-57
2022/04/11 03:44:43;;;;;;;118.68;9.93;;;;;;;0.33;100.00;98352.03;5002273;28;20037;-54
2022/04/11 03:47:08;;;;;;;107.40;9.32;;;;;;;0.44;100.00;98355.53;4999351;28;20069;-56
2022/04/11 03:49:34;;;;;;;73.75;8.35;;;;;;;0.33;100.00;98352.03;4998305;28;20025;-55
2022/04/11 03:51:59;;;;;;;94.68;9.52;;;;;;;0.37;100.00;98348.66;5000423;28;20044;-54
2022/04/11 03:54:25;;;;;;;97.45;9.45;;;;;;;0.14;100.00;98344.22;4996304;28;20105;-55
2022/04/11 03:56:50;;;;;;;98.15;8.48;;;;;;;0.32;100.00;98348.59;4997669;28;20038;-56
2022/04/11 03:59:15;;;;;;;82.55;8.25;;;;;;;0.43;100.00;98342.69;4999227;28;20036;-55
2022/04/11 04:01:41;;;;;;;99.22;9.02;;;;;;;0.38;100.00;98342.66;4997447;28;20053;-54
2022/04/11 04:04:06;;;;;;;94.47;9.15;;;;;;;0.24;100.00;98345.16;4999232;28;20025;-55
2022/04/11 04:06:32;;;;;;;90.88;8.50;;;;;;;0.47;100.00;98347.81;4998499;28;20044;-54
2022/04/11 04:08:57;;;;;;;81.53;7.45;;;;;;;0.67;100.00;98334.25;4999103;28;20113;-55
2022/04/11 04:11:23;;;;;;;100.57;9.15;;;;;;;0.49;100.00;98353.81;5000158;28;20057;-54
2022/04/11 04:13:48;;;;;;;89.55;7.75;;;;;;;0.64;100.00;98334.22;4997738;28;20036;-54
2022/04/11 04:16:14;;;;;;;97.75;7.03;;;;;;;0.80;100.00;98338.56;4998591;28;20530;-54
2022/04/11 04:18:39;;;;;;;100.75;9.45;;;;;;;0.45;100.00;98348.69;4996727;28;20032;-56
2022/04/11 04:21:05;;;;;;;100.70;9.05;;;;;;;0.65;100.00;98338.50;4998681;28;20052;-55
2022/04/11 04:23:30;;;;;;;95.93;9.10;;;;;;;0.75;100.00;98345.38;4996122;28;20018;-55
2022/04/11 04:25:56;;;;;;;76.38;8.23;;;;;;;0.92;100.00;98348.88;4997426;28;20684;-54
2022/04/11 04:28:21;;;;;;;90.38;9.02;;;;;;;0.92;100.00;98338.59;4999031;28;20113;-55
2022/04/11 04:30:47;;;;;;;92.70;10.07;;;;;;;0.64;100.00;98339.34;4996891;28;20812;-56
2022/04/11 04:33:12;;;;;;;89.28;10.00;;;;;;;0.74;100.00;98338.53;5002773;28;20553;-55
2022/04/11 04:35:38;;;;;;;87.05;9.65;;;;;;;0.76;100.00;98331.69;4995454;28;20095;-55
2022/04/11 04:38:04;;;;;;;97.55;10.32;;;;;;;0.81;100.00;98330.00;4995796;28;20039;-56
2022/04/11 04:40:29;;;;;;;91.40;10.15;;;;;;;0.76;100.00;98327.41;4995968;28;20579;-55
2022/04/11 04:42:55;;;;;;;94.70;9.52;;;;;;;0.87;100.00;98331.75;4999512;28;20475;-56
2022/04/11 04:45:20;;;;;;;77.88;8.65;;;;;;;0.85;100.00;98326.59;5001102;28;20029;-57
2022/04/11 04:47:46;;;;;;;96.22;9.68;;;;;;;0.95;100.00;98320.59;4997939;28;20552;-56
2022/04/11 04:50:11;;;;;;;92.55;8.95;;;;;;;0.88;100.00;98318.91;5003778;28;20033;-56
2022/04/11 04:52:38;;;;;;;94.55;9.10;;;;;;;1.23;100.00;98315.56;5004927;28;20025;-56
2022/04/11 04:55:04;;;;;;;89.85;8.77;;;;;;;1.23;100.00;98319.81;5002047;28;20029;-55
2022/04/11 04:57:30;;;;;;;97.07;9.15;;;;;;;1.63;100.00;98314.72;5001015;28;20020;-55
2022/04/11 04:59:55;;;;;;;96.65;9.60;;;;;;;1.50;100.00;98313.84;5001953;28;20026;-55
2022/04/11 05:02:21;;;;;;;108.47;9.82;;;;;;;2.03;100.00;98310.38;4998769;28;20022;-56
2022/04/11 05:04:46;;;;;;;119.07;10.82;;;;;;;2.19;100.00;98303.50;5000226;28;20065;-56
2022/04/11 05:07:11;;;;;;;93.30;9.65;;;;;;;2.42;100.00;98310.28;5001393;28;20591;-62
2022/04/11 05:09:36;;;;;;;102.22;9.50;;;;;;;2.44;100.00;98299.09;5000603;28;20133;-56
2022/04/11 05:12:02;;;;;;;102.35;9.57;;;;;;;2.54;100.00;98305.09;5001697;28;20047;-56
2022/04/11 05:14:27;;;;;;;94.03;9.65;;;;;;;2.56;100.00;98299.94;5002864;28;20672;-56
2022/04/11 05:16:53;;;;;;;99.10;10.52;;;;;;;2.79;100.00;98299.81;5000613;28;20088;-55
2022/04/11 05:19:18;;;;;;;89.20;9.95;;;;;;;2.97;100.00;98298.88;5001754;28;20486;-56
2022/04/11 05:21:43;;;;;;;95.72;9.75;;;;;;;3.64;100.00;98289.81;5001356;28;20620;-57
2022/04/11 05:24:09;;;;;;;113.80;10.02;;;;;;;3.99;100.00;98291.22;4994740;28;20891;-56
2022/04/11 05:26:34;;;;;;;90.15;9.20;;;;;;;4.39;100.00;98294.22;4999671;28;20038;-55
2022/04/11 05:28:59;;;;;;;87.05;9.13;;;;;;;6.02;100.00;98291.00;5003187;28;20537;-57
2022/04/11 05:31:25;;;;;;;97.82;9.32;;;;;;;5.66;100.00;98282.09;5002760;28;20066;-58
2022/04/11 05:33:50;;;;;;;92.72;8.70;;;;;;;6.69;100.00;98283.66;5003935;28;20060;-57
2022/04/11 05:36:16;;;;;;;109.88;9.32;;;;;;;6.53;100.00;98277.09;5001703;28;20038;-56
2022/04/11 05:38:41;;;;;;;98.05;9.05;;;;;;;7.16;100.00;98280.06;5001505;28;20025;-56
2022/04/11 05:41:07;;;;;;;90.72;8.77;;;;;;;7.20;100.00;98281.69;4999865;28;20600;-57
2022/04/11 05:43:32;;;;;;;104.85;9.52;;;;;;;7.94;100.00;98277.28;5000647;28;20032;-55
2022/04/11 05:45:59;;;;;;;76.82;8.68;;;;;;;8.64;100.00;98274.56;4998836;28;20037;-56
2022/04/11 05:48:25;;;;;;;84.68;8.88;;;;;;;7.65;100.00;98278.91;4981023;28;20031;-57
2022/04/11 05:50:50;;;;;;;104.38;9.63;;;;;;;9.10;100.00;98272.31;4997326;28;20054;-56
2022/04/11 05:53:15;;;;;;;93.07;10.13;;;;;;;8.66;100.00;98278.81;4997109;28;20434;-56
2022/04/11 05:55:40;;;;;;;92.07;9.70;;;;;;;8.98;100.00;98279.59;4998474;28;20107;-57
2022/04/11 05:58:06;;;;;;;88.60;9.32;;;;;;;8.65;100.00;98282.31;4999983;28;20107;-57
2022/04/11 06:00:31;;;;;;;86.95;8.90;;;;;;;8.92;100.00;98279.81;4997644;28;20044;-57
2022/04/11 06:02:57;;;;;;;81.20;8.45;;;;;;;9.07;100.00;98281.94;5000720;28;20116;-58
2022/04/11 06:05:22;;;;;;;98.07;9.05;;;;;;;8.63;100.00;98289.28;5002491;28;20041;-56
2022/04/11 06:07:47;;;;;;;71.05;8.10;;;;;;;9.14;100.00;98289.56;4997572;28;20156;-56
2022/04/11 06:10:13;;;;;;;85.68;8.50;;;;;;;9.01;96.46;98278.69;4998491;28;20510;-57
2022/04/11 06:12:39;;;;;;;96.47;9.13;;;;;;;9.57;92.67;98283.00;5000414;28;20510;-58
2022/04/11 06:15:05;;;;;;;87.75;8.73;;;;;;;9.75;91.13;98290.22;4998805;28;20467;-57
2022/04/11 06:17:30;;;;;;;86.68;8.60;;;;;;;8.84;97.50;98289.56;5002570;28;20029;-57
2022/04/11 06:19:58;;;;;;;88.97;8.70;;;;;;;8.72;95.85;98298.59;5002246;28;20040;-56
2022/04/11 06:22:24;;;;;;;99.60;9.07;;;;;;;10.93;84.67;98297.41;4999204;28;20034;-58
2022/04/11 06:24:50;;;;;;;133.15;10.70;;;;;;;10.73;87.71;98293.81;4995625;28;20038;-57
2022/04/11 06:27:17;;;;;;;79.70;8.18;;;;;;;10.50;85.37;98302.44;4996148;28;20048;-56
2022/04/11 06:29:43;;;;;;;96.95;9.82;;;;;;;10.52;84.67;98308.47;4998748;28;20519;-56
2022/04/11 06:32:09;;;;;;;88.85;8.85;;;;;;;10.60;88.20;98314.28;4997767;28;20034;-55
2022/04/11 06:34:35;;;;;;;92.10;8.73;;;;;;;10.57;78.22;98319.59;4996691;28;20018;-55
2022/04/11 06:37:01;;;;;;;93.95;8.93;;;;;;;11.14;85.36;98324.47;4997836;28;20041;-57
2022/04/11 06:39:27;;;;;;;93.82;8.73;;;;;;;10.87;76.13;98327.19;5000184;28;20036;-58
2022/04/11 06:41:52;;;;;;;70.28;7.88;;;;;;;12.59;72.59;98321.19;4999951;28;20827;-55
2022/04/11 06:44:18;;;;;;;69.28;7.78;;;;;;;12.91;66.93;98330.22;5001073;28;20044;-57
2022/04/11 06:46:43;;;;;;;75.53;8.48;;;;;;;11.31;73.63;98322.06;4998906;28;20888;-58
2022/04/11 06:49:09;;;;;;;84.93;8.82;;;;;;;13.27;66.61;98318.97;4996674;28;20040;-57
2022/04/11 06:51:34;;;;;;;102.22;9.68;;;;;;;12.54;65.46;98322.25;4996856;28;20038;-55
2022/04/11 06:53:59;;;;;;;93.18;9.80;;;;;;;12.68;63.24;98324.25;4996694;28;20033;-57
2022/04/11 06:56:25;;;;;;;75.43;8.00;;;;;;;13.39;62.63;98320.22;4995777;28;20507;-57
2022/04/11 06:58:50;;;;;;;85.15;8.90;;;;;;;14.63;60.74;98316.69;4993759;28;20320;-59
2022/04/11 07:01:16;;;;;;;73.65;8.40;;;;;;;14.06;60.34;98318.69;4996394;28;20654;-59
2022/04/11 07:03:41;;;;;;;78.47;8.25;;;;;;;14.28;58.88;98328.97;4999862;28;20033;-56
2022/04/11 07:06:07;;;;;;;69.72;7.72;;;;;;;14.23;64.22;98316.06;4997344;28;20038;-58
2022/04/11 07:08:33;;;;;;;78.78;8.90;;;;;;;12.04;64.28;98333.13;5000026;28;20037;-57
2022/04/11 07:10:59;;;;;;;69.57;8.13;;;;;;;12.96;62.40;98327.38;4995686;28;20044;-57
2022/04/11 07:13:24;;;;;;;73.00;8.15;;;;;;;12.40;63.59;98319.38;4999275;28;20026;-58
2022/04/11 07:15:50;;;;;;;62.17;7.65;;;;;;;14.52;60.02;98310.25;4997246;28;20459;-57
2022/04/11 07:18:15;;;;;;;84.82;8.85;;;;;;;14.07;60.63;98316.00;4997244;28;20129;-59
2022/04/11 07:20:40;;;;;;;69.82;7.95;;;;;;;12.73;64.53;98327.50;4996879;28;20078;-58
2022/04/11 07:23:06;;;;;;;72.65;7.93;;;;;;;14.25;60.18;98321.25;4996066;28;20685;-57
2022/04/11 07:25:31;;;;;;;83.93;8.82;;;;;;;14.72;61.34;98314.47;4993713;28;20546;-58
2022/04/11 07:27:57;;;;;;;81.38;8.75;;;;;;;15.50;55.91;98312.03;4996560;28;20041;-58
2022/04/11 07:30:22;;;;;;;85.00;9.02;;;;;;;16.18;56.74;98309.00;4998786;28;20037;-60
2022/04/11 07:32:47;;;;;;;94.95;9.27;;;;;;;19.29;50.13;98303.84;4996225;28;20108;-58
2022/04/11 07:35:13;;;;;;;58.83;7.75;;;;;;;17.49;49.72;98303.63;4997626;28;20026;-58
2022/04/11 07:37:38;;;;;;;80.40;8.63;;;;;;;18.26;47.87;98299.44;4999005;28;20028;-58
2022/04/11 07:40:04;;;;;;;59.17;7.47;;;;;;;18.51;46.45;98297.78;4998559;28;20022;-59
2022/04/11 07:42:29;;;;;;;74.47;8.45;;;;;;;16.92;46.92;98304.59;4994644;28;20122;-57
2022/04/11 07:44:55;;;;;;;93.40;9.25;;;;;;;18.73;44.37;98293.63;4994473;28;20044;-56
2022/04/11 07:47:20;;;;;;;66.78;7.75;;;;;;;18.19;46.46;98290.25;4994261;28;20046;-55
2022/04/11 07:49:46;;;;;;;79.30;8.48;;;;;;;18.82;43.03;98282.44;4996771;28;20045;-56
2022/04/11 07:52:11;;;;;;;71.57;7.90;;;;;;;20.08;42.06;98297.16;4994713;28;20049;-58
2022/04/11 07:54:36;;;;;;;73.32;8.40;;;;;;;20.46;41.37;98290.75;4994822;28;20060;-58
2022/04/11 07:57:03;;;;;;;64.75;7.72;;;;;;;21.03;39.96;98298.78;4995361;28;20673;-56
2022/04/11 07:59:28;;;;;;;65.80;7.72;;;;;;;20.93;39.42;98299.47;4996698;28;20451;-56
2022/04/11 08:01:53;;;;;;;58.42;7.53;;;;;;;18.58;40.86;98285.84;4996784;28;20706;-58
2022/04/11 08:04:19;;;;;;;58.17;8.00;;;;;;;20.58;40.77;98289.78;4999135;28;20038;-58
2022/04/11 08:06:44;;;;;;;72.25;8.70;;;;;;;19.66;42.18;98280.81;4997517;28;20045;-58
2022/04/11 08:09:10;;;;;;;73.03;8.35;;;;;;;24.33;36.32;98282.88;4990332;28;20026;-55
2022/04/11 08:11:35;;;;;;;104.22;10.57;;;;;;;19.14;39.89;98284.63;4989209;28;20509;-59
2022/04/11 08:14:00;;;;;;;83.85;9.45;;;;;;;21.60;38.64;98287.09;4991290;28;20033;-56
2022/04/11 08:16:26;;;;;;;92.22;9.55;;;;;;;22.46;36.85;98268.47;4992420;28;20993;-57
2022/04/11 08:18:51;;;;;;;98.82;10.30;;;;;;;21.14;38.61;98277.53;4990522;28;20041;-56
2022/04/11 08:21:16;;;;;;;97.78;9.95;;;;;;;24.55;34.39;98270.22;4989654;28;20066;-58
2022/04/11 08:23:42;;;;;;;101.57;10.65;;;;;;;23.76;35.44;98272.09;4980328;28;20463;-61
2022/04/11 08:26:07;;;;;;;101.32;10.70;;;;;;;22.07;36.66;98266.38;4997998;28;20102;-58
2022/04/11 08:28:32;;;;;;;100.00;10.48;;;;;;;19.19;39.92;98258.72;4995551;28;20030;-60
2022/04/11 08:30:58;;;;;;;105.57;10.75;;;;;;;22.23;35.91;98255.28;4990691;28;20038;-59
2022/04/11 08:33:23;;;;;;;104.40;10.45;;;;;;;19.87;36.46;98262.56;4991545;28;20021;-61
2022/04/11 08:35:48;;;;;;;109.43;11.00;;;;;;;20.14;37.14;98259.59;4986439;28;20045;-58
2022/04/11 08:38:14;;;;;;;115.35;9.93;;;;;;;20.65;32.98;98252.25;4987711;28;20079;-56
2022/04/11 08:40:39;;;;;;;108.32;9.65;;;;;;;20.86;32.39;98247.91;4990597;28;20105;-58
2022/04/11 08:43:05;;;;;;;131.68;11.25;;;;;;;20.94;33.64;98250.78;4992616;28;20476;-58
2022/04/11 08:45:31;;;;;;;121.82;10.02;;;;;;;18.33;35.77;98246.22;4991472;28;20037;-56
2022/04/11 08:47:56;;;;;;;117.80;9.80;;;;;;;18.56;36.57;98250.75;4991960;28;20061;-60
2022/04/11 08:50:26;;;;;;;117.22;10.13;;;;;;;19.66;34.31;98238.50;4991029;28;20083;-60
2022/04/11 08:52:53;;;;;;;118.43;9.75;;;;;;;18.58;35.66;98240.94;4988760;28;20033;-58
2022/04/11 08:55:19;;;;;;;118.82;9.82;;;;;;;19.23;34.65;98252.25;4989503;28;20139;-58
2022/04/11 08:57:45;;;;;;;124.32;10.30;;;;;;;19.16;34.83;98249.19;4991248;28;20079;-60
2022/04/11 09:00:12;;;;;;;129.07;10.18;;;;;;;21.17;33.91;98233.03;4989706;28;20633;-58
2022/04/11 09:02:38;;;;;;;112.05;9.55;;;;;;;17.47;35.82;98240.44;4988806;28;20018;-58
2022/04/11 09:05:04;;;;;;;117.93;9.93;;;;;;;18.57;35.76;98241.03;4988068;28;20704;-60
2022/04/11 09:07:56;;;;;;;116.68;9.73;;;;;;;18.94;35.83;98241.94;4987655;28;20111;-60
2022/04/11 09:10:26;;;;;;;113.40;9.57;;;;;;;19.66;33.94;98241.13;4989186;28;20068;-57
2022/04/11 09:12:54;;;;;;;88.47;8.25;;;;;;;20.28;33.16;98236.53;4991409;28;20025;-57
2022/04/11 09:15:21;;;;;;;107.13;9.13;;;;;;;20.40;32.68;98230.25;4989109;28;20463;-57
2022/04/11 09:17:47;;;;;;;102.40;8.52;;;;;;;20.42;32.91;98236.31;4990513;28;20313;-58
2022/04/11 09:20:21;;;;;;;90.28;8.05;;;;;;;20.16;33.21;98236.53;4991771;28;20826;-57
2022/04/11 09:22:47;;;;;;;119.18;9.57;;;;;;;17.70;35.10;98227.56;4989941;28;21020;-57
2022/04/11 09:25:19;;;;;;;113.55;9.32;;;;;;;18.76;33.62;98227.38;4987595;28;20037;-57
2022/04/11 09:27:46;;;;;;;139.38;10.90;;;;;;;18.40;34.15;98239.59;4990186;28;20033;-58
2022/04/11 09:30:19;;;;;;;142.07;10.85;;;;;;;18.03;35.74;98234.16;4988424;28;20145;-57
2022/04/11 09:33:00;;;;;;;136.43;10.85;;;;;;;19.37;34.47;98236.22;4987618;28;20041;-60
2022/04/11 09:35:34;;;;;;;133.02;10.18;;;;;;;19.57;34.19;98228.59;4990022;28;20037;-57
2022/04/11 09:38:07;;;;;;;106.82;8.68;;;;;;;18.62;34.78;98218.63;4988118;28;20026;-56
2022/04/11 09:40:42;;;;;;;58.40;5.82;;;;;;;18.81;33.12;98220.00;4997723;28;20038;-56
2022/04/11 09:43:10;;;;;;;87.03;7.50;;;;;;;16.15;34.72;98227.59;5001974;28;20441;-56
2022/04/11 09:45:40;;;;;;;80.55;7.18;;;;;;;18.10;34.59;98219.59;5000362;28;20044;-56
2022/04/11 09:48:06;;;;;;;74.25;6.70;;;;;;;19.02;32.91;98217.59;5001126;28;20116;-57
2022/04/11 09:50:32;;;;;;;55.40;5.43;;;;;;;18.63;33.18;98214.19;4999657;28;20102;-56
2022/04/11 09:53:15;;;;;;;58.25;5.97;;;;;;;18.53;32.48;98215.78;5002923;28;20586;-57
2022/04/11 09:55:43;;;;;;;69.35;6.55;;;;;;;19.20;32.28;98215.44;5000159;28;20051;-58
2022/04/11 09:58:08;;;;;;;80.20;7.20;;;;;;;17.40;34.75;98215.41;5004623;28;20029;-58
2022/04/11 10:00:38;;;;;;;50.33;5.10;;;;;;;20.96;30.86;98203.78;5002363;28;20099;-57
2022/04/11 10:03:07;;;;;;;63.88;6.38;;;;;;;20.14;31.70;98201.34;5001110;28;20026;-58
2022/04/11 10:05:38;;;;;;;54.42;5.43;;;;;;;18.69;32.75;98201.41;4999981;28;20129;-57
2022/04/11 10:08:06;;;;;;;76.72;6.85;;;;;;;18.87;33.00;98193.13;4998570;28;20022;-56
2022/04/11 10:10:34;;;;;;;67.25;6.00;;;;;;;17.07;34.49;98195.56;4998619;28;20042;-55
2022/04/11 10:13:01;;;;;;;68.50;6.57;;;;;;;18.23;33.13;98196.69;5001668;28;20031;-58
2022/04/11 10:15:26;;;;;;;46.30;5.13;;;;;;;17.23;34.16;98192.78;5001039;28;20860;-58
2022/04/11 10:17:54;;;;;;;47.45;5.45;;;;;;;17.64;35.38;98191.00;5001937;28;20168;-56
2022/04/11 10:20:28;;;;;;;56.17;5.78;;;;;;;17.98;33.99;98179.06;5001219;28;20022;-59
2022/04/11 10:23:14;;;;;;;98.60;8.27;;;;;;;17.41;34.46;98190.75;5000357;28;20076;-57
2022/04/11 10:25:55;;;;;;;55.92;6.00;;;;;;;16.45;35.45;98174.88;4998878;28;20775;-58
2022/04/11 10:28:22;;;;;;;82.57;7.32;;;;;;;17.53;34.41;98179.41;5002316;28;20483;-61
2022/04/11 10:31:06;;;;;;;65.57;6.28;;;;;;;17.21;36.56;98178.03;5000063;28;20090;-57
2022/04/11 10:33:40;;;;;;;91.72;7.72;;;;;;;18.68;34.75;98181.19;5002264;28;20063;-55
2022/04/11 10:36:24;;;;;;;72.35;5.80;;;;;;;20.31;32.90;98167.41;4997794;28;20772;-58
2022/04/11 10:39:14;;;;;;;108.43;8.80;;;;;;;19.40;32.35;98164.56;4998561;28;20041;-56
2022/04/11 10:41:55;;;;;;;87.35;7.20;;;;;;;17.92;33.80;98164.50;5000235;28;20045;-57
2022/04/11 10:44:36;;;;;;;58.08;5.30;;;;;;;19.23;32.79;98157.03;4999943;28;20028;-58
2022/04/11 10:47:07;;;;;;;71.53;6.15;;;;;;;17.85;34.07;98155.31;5001109;28;20046;-58
2022/04/11 10:49:55;;;;;;;70.13;5.75;;;;;;;17.72;34.63;98152.63;5001792;28;20574;-59
2022/04/11 10:52:26;;;;;;;88.68;7.25;;;;;;;18.20;31.43;98143.28;5001401;28;20053;-60
2022/04/11 10:54:55;;;;;;;90.70;6.72;;;;;;;19.02;32.76;98139.16;4997881;28;20062;-59
2022/04/11 10:57:41;;;;;;;50.10;4.82;;;;;;;18.05;31.72;98142.53;4999957;28;20037;-59
2022/04/11 11:00:09;;;;;;;67.68;5.80;;;;;;;17.53;34.90;98137.19;5004993;28;20998;-59
2022/04/11 11:05:27;;;;;;;80.35;7.10;;;;;;;15.00;37.31;98140.50;4999992;28;20033;-61
2022/04/11 11:08:13;;;;;;;73.22;6.45;;;;;;;17.36;35.25;98121.66;4998231;28;20535;-61
2022/04/11 11:10:42;;;;;;;104.80;8.32;;;;;;;15.25;36.79;98133.84;4988795;28;20046;-61
2022/04/11 11:13:30;;;;;;;87.43;7.30;;;;;;;16.28;36.33;98120.63;5001484;28;20033;-61
2022/04/11 11:15:57;;;;;;;72.97;6.75;;;;;;;15.58;36.19;98121.34;5002656;28;20042;-58
2022/04/11 11:18:23;;;;;;;63.63;5.82;;;;;;;15.76;37.70;98121.22;5002018;28;20037;-59
2022/04/11 11:20:51;;;;;;;80.40;6.80;;;;;;;17.32;34.96;98099.09;4999059;28;20090;-61
2022/04/11 11:23:30;;;;;;;53.33;5.13;;;;;;;17.17;35.33;98092.19;4999443;28;20022;-61